sensor_id;sensor_type;location;lat;lon;timestamp;temperature;humidity
16513;DHT22;8369;48.030;11.598;2023-02-11T00:00:39;-2.80;99.90
16513;DHT22;8369;48.030;11.598;2023-02-11T00:03:05;-2.90;99.90
16513;DHT22;8369;48.030;11.598;2023-02-11T00:05:32;-2.90;99.90
16513;DHT22;8369;48.030;11.598;2023-02-11T00:07:58;-2.90;99.90
16513;DHT22;8369;48.030;11.598;2023-02-11T00:10:23;-2.90;99.90
16513;DHT22;8369;48.030;11.598;2023-02-11T00:12:50;-2.90;99.90
16513;DHT22;8369;48.030;11.598;2023-02-11T00:15:16;-3.00;99.90
16513;DHT22;8369;48.030;11.598;2023-02-11T00:17:43;-3.00;99.90
16513;DHT22;8369;48.030;11.598;2023-02-11T00:20:09;-3.00;99.90
16513;DHT22;8369;48.030;11.598;2023-02-11T00:22:35;-3.00;99.90
16513;DHT22;8369;48.030;11.598;2023-02-11T00:25:01;-3.00;99.90
16513;DHT22;8369;48.030;11.598;2023-02-11T00:27:27;-3.10;99.90
16513;DHT22;8369;48.030;11.598;2023-02-11T00:33:34;-3.10;99.90
16513;DHT22;8369;48.030;11.598;2023-02-11T00:36:06;-3.10;99.90
16513;DHT22;8369;48.030;11.598;2023-02-11T00:38:32;-3.10;99.90
16513;DHT22;8369;48.030;11.598;2023-02-11T00:40:58;-3.10;99.90
16513;DHT22;8369;48.030;11.598;2023-02-11T00:43:25;-3.10;99.90
16513;DHT22;8369;48.030;11.598;2023-02-11T00:45:51;-3.10;99.90
16513;DHT22;8369;48.030;11.598;2023-02-11T00:48:17;-3.10;99.90
16513;DHT22;8369;48.030;11.598;2023-02-11T00:50:43;-3.20;99.90
16513;DHT22;8369;48.030;11.598;2023-02-11T00:53:09;-3.20;99.90
16513;DHT22;8369;48.030;11.598;2023-02-11T00:55:35;-3.20;99.90
16513;DHT22;8369;48.030;11.598;2023-02-11T00:58:02;-3.20;99.90
16513;DHT22;8369;48.030;11.598;2023-02-11T01:00:28;-3.20;99.90
16513;DHT22;8369;48.030;11.598;2023-02-11T01:02:54;-3.20;99.90
16513;DHT22;8369;48.030;11.598;2023-02-11T01:05:20;-3.20;99.90
16513;DHT22;8369;48.030;11.598;2023-02-11T01:08:17;-3.20;99.90
16513;DHT22;8369;48.030;11.598;2023-02-11T01:10:43;-3.20;99.90
16513;DHT22;8369;48.030;11.598;2023-02-11T01:13:10;-3.30;99.90
16513;DHT22;8369;48.030;11.598;2023-02-11T01:15:36;-3.30;99.90
16513;DHT22;8369;48.030;11.598;2023-02-11T01:18:03;-3.30;99.90
16513;DHT22;8369;48.030;11.598;2023-02-11T01:20:32;-3.30;99.90
16513;DHT22;8369;48.030;11.598;2023-02-11T01:22:58;-3.30;99.90
16513;DHT22;8369;48.030;11.598;2023-02-11T01:25:24;-3.20;99.90
16513;DHT22;8369;48.030;11.598;2023-02-11T01:27:50;-3.20;99.90
16513;DHT22;8369;48.030;11.598;2023-02-11T01:30:22;-3.20;99.90
16513;DHT22;8369;48.030;11.598;2023-02-11T01:32:48;-3.20;99.90
16513;DHT22;8369;48.030;11.598;2023-02-11T01:35:14;-3.20;99.90
16513;DHT22;8369;48.030;11.598;2023-02-11T01:37:40;-3.30;99.90
16513;DHT22;8369;48.030;11.598;2023-02-11T01:40:11;-3.30;99.90
16513;DHT22;8369;48.030;11.598;2023-02-11T01:42:38;-3.30;99.90
16513;DHT22;8369;48.030;11.598;2023-02-11T01:48:10;-3.30;99.90
16513;DHT22;8369;48.030;11.598;2023-02-11T01:50:38;-3.30;99.90
16513;DHT22;8369;48.030;11.598;2023-02-11T01:53:06;-3.40;99.90
16513;DHT22;8369;48.030;11.598;2023-02-11T01:55:52;-3.40;99.90
16513;DHT22;8369;48.030;11.598;2023-02-11T01:58:40;-3.40;99.90
16513;DHT22;8369;48.030;11.598;2023-02-11T02:01:07;-3.40;99.90
16513;DHT22;8369;48.030;11.598;2023-02-11T02:03:38;-3.40;99.90
16513;DHT22;8369;48.030;11.598;2023-02-11T02:06:21;-3.50;99.90
16513;DHT22;8369;48.030;11.598;2023-02-11T02:09:04;-3.50;99.90
16513;DHT22;8369;48.030;11.598;2023-02-11T02:11:31;-3.50;99.90
16513;DHT22;8369;48.030;11.598;2023-02-11T02:13:58;-3.50;99.90
16513;DHT22;8369;48.030;11.598;2023-02-11T02:16:29;-3.60;99.90
16513;DHT22;8369;48.030;11.598;2023-02-11T02:27:39;-3.60;99.90
16513;DHT22;8369;48.030;11.598;2023-02-11T02:30:34;-3.60;99.90
16513;DHT22;8369;48.030;11.598;2023-02-11T02:38:24;-3.70;99.90
16513;DHT22;8369;48.030;11.598;2023-02-11T02:41:14;-3.70;99.90
16513;DHT22;8369;48.030;11.598;2023-02-11T02:43:43;-3.70;99.90
16513;DHT22;8369;48.030;11.598;2023-02-11T02:46:32;-3.70;99.90
16513;DHT22;8369;48.030;11.598;2023-02-11T02:48:58;-3.80;99.90
16513;DHT22;8369;48.030;11.598;2023-02-11T02:51:46;-3.70;99.90
16513;DHT22;8369;48.030;11.598;2023-02-11T03:02:33;-3.80;99.90
16513;DHT22;8369;48.030;11.598;2023-02-11T03:08:16;-3.80;99.90
16513;DHT22;8369;48.030;11.598;2023-02-11T03:10:49;-3.80;99.90
16513;DHT22;8369;48.030;11.598;2023-02-11T03:13:19;-3.90;99.90
16513;DHT22;8369;48.030;11.598;2023-02-11T03:15:50;-3.90;99.90
16513;DHT22;8369;48.030;11.598;2023-02-11T03:18:19;-3.90;99.90
16513;DHT22;8369;48.030;11.598;2023-02-11T03:20:50;-3.90;99.90
16513;DHT22;8369;48.030;11.598;2023-02-11T03:26:07;-3.90;99.90
16513;DHT22;8369;48.030;11.598;2023-02-11T03:28:44;-3.90;99.90
16513;DHT22;8369;48.030;11.598;2023-02-11T03:33:50;-3.90;99.90
16513;DHT22;8369;48.030;11.598;2023-02-11T03:36:23;-3.90;99.90
16513;DHT22;8369;48.030;11.598;2023-02-11T03:38:55;-3.90;99.90
16513;DHT22;8369;48.030;11.598;2023-02-11T03:41:23;-3.90;99.90
16513;DHT22;8369;48.030;11.598;2023-02-11T03:43:55;-3.90;99.90
16513;DHT22;8369;48.030;11.598;2023-02-11T03:46:31;-3.90;99.90
16513;DHT22;8369;48.030;11.598;2023-02-11T03:49:03;-3.90;99.90
16513;DHT22;8369;48.030;11.598;2023-02-11T03:51:31;-3.90;99.90
16513;DHT22;8369;48.030;11.598;2023-02-11T03:53:59;-3.90;99.90
16513;DHT22;8369;48.030;11.598;2023-02-11T03:56:28;-3.90;99.90
16513;DHT22;8369;48.030;11.598;2023-02-11T03:58:56;-3.90;99.90
16513;DHT22;8369;48.030;11.598;2023-02-11T04:01:22;-3.90;99.90
16513;DHT22;8369;48.030;11.598;2023-02-11T04:03:48;-3.90;99.90
16513;DHT22;8369;48.030;11.598;2023-02-11T04:06:14;-3.90;99.90
16513;DHT22;8369;48.030;11.598;2023-02-11T04:08:40;-3.90;99.90
16513;DHT22;8369;48.030;11.598;2023-02-11T04:11:06;-3.90;99.90
16513;DHT22;8369;48.030;11.598;2023-02-11T04:13:32;-3.90;99.90
16513;DHT22;8369;48.030;11.598;2023-02-11T04:15:58;-3.90;99.90
16513;DHT22;8369;48.030;11.598;2023-02-11T04:18:24;-3.90;99.90
16513;DHT22;8369;48.030;11.598;2023-02-11T04:20:50;-3.90;99.90
16513;DHT22;8369;48.030;11.598;2023-02-11T04:23:16;-3.90;99.90
16513;DHT22;8369;48.030;11.598;2023-02-11T04:25:42;-3.90;99.90
16513;DHT22;8369;48.030;11.598;2023-02-11T04:28:08;-4.00;99.90
16513;DHT22;8369;48.030;11.598;2023-02-11T04:30:50;-4.00;99.90
16513;DHT22;8369;48.030;11.598;2023-02-11T04:33:19;-4.00;99.90
16513;DHT22;8369;48.030;11.598;2023-02-11T04:36:00;-4.00;99.90
16513;DHT22;8369;48.030;11.598;2023-02-11T04:38:29;-4.00;99.90
16513;DHT22;8369;48.030;11.598;2023-02-11T04:40:56;-4.00;99.90
16513;DHT22;8369;48.030;11.598;2023-02-11T04:43:22;-4.00;99.90
16513;DHT22;8369;48.030;11.598;2023-02-11T04:45:48;-4.00;99.90
16513;DHT22;8369;48.030;11.598;2023-02-11T04:48:14;-4.00;99.90
16513;DHT22;8369;48.030;11.598;2023-02-11T04:50:40;-4.10;99.90
16513;DHT22;8369;48.030;11.598;2023-02-11T04:53:06;-4.10;99.90
16513;DHT22;8369;48.030;11.598;2023-02-11T04:55:32;-4.10;99.90
16513;DHT22;8369;48.030;11.598;2023-02-11T04:57:58;-4.10;99.90
16513;DHT22;8369;48.030;11.598;2023-02-11T05:00:24;-4.10;99.90
16513;DHT22;8369;48.030;11.598;2023-02-11T05:02:59;-4.10;99.90
16513;DHT22;8369;48.030;11.598;2023-02-11T05:05:25;-4.10;99.90
16513;DHT22;8369;48.030;11.598;2023-02-11T05:07:51;-4.10;99.90
16513;DHT22;8369;48.030;11.598;2023-02-11T05:10:17;-4.10;99.90
16513;DHT22;8369;48.030;11.598;2023-02-11T05:12:43;-4.10;99.90
16513;DHT22;8369;48.030;11.598;2023-02-11T05:15:09;-4.10;99.90
16513;DHT22;8369;48.030;11.598;2023-02-11T05:17:37;-4.10;99.90
16513;DHT22;8369;48.030;11.598;2023-02-11T05:20:03;-4.10;99.90
16513;DHT22;8369;48.030;11.598;2023-02-11T05:22:29;-4.10;99.90
16513;DHT22;8369;48.030;11.598;2023-02-11T05:24:56;-4.10;99.90
16513;DHT22;8369;48.030;11.598;2023-02-11T05:27:21;-4.10;99.90
16513;DHT22;8369;48.030;11.598;2023-02-11T05:29:47;-4.10;99.90
16513;DHT22;8369;48.030;11.598;2023-02-11T05:32:13;-4.10;99.90
16513;DHT22;8369;48.030;11.598;2023-02-11T05:34:39;-4.10;99.90
16513;DHT22;8369;48.030;11.598;2023-02-11T05:37:05;-4.10;99.90
16513;DHT22;8369;48.030;11.598;2023-02-11T05:39:31;-4.10;99.90
16513;DHT22;8369;48.030;11.598;2023-02-11T05:41:57;-4.10;99.90
16513;DHT22;8369;48.030;11.598;2023-02-11T05:44:22;-4.00;99.90
16513;DHT22;8369;48.030;11.598;2023-02-11T05:46:48;-4.00;99.90
16513;DHT22;8369;48.030;11.598;2023-02-11T05:49:15;-4.00;99.90
16513;DHT22;8369;48.030;11.598;2023-02-11T05:51:42;-3.90;99.90
16513;DHT22;8369;48.030;11.598;2023-02-11T05:54:08;-3.90;99.90
16513;DHT22;8369;48.030;11.598;2023-02-11T05:56:34;-3.80;99.90
16513;DHT22;8369;48.030;11.598;2023-02-11T05:59:00;-3.80;99.90
16513;DHT22;8369;48.030;11.598;2023-02-11T06:01:26;-3.70;99.90
16513;DHT22;8369;48.030;11.598;2023-02-11T06:03:52;-3.70;99.90
16513;DHT22;8369;48.030;11.598;2023-02-11T06:06:18;-3.60;99.90
16513;DHT22;8369;48.030;11.598;2023-02-11T06:08:43;-3.60;99.90
16513;DHT22;8369;48.030;11.598;2023-02-11T06:11:09;-3.50;99.90
16513;DHT22;8369;48.030;11.598;2023-02-11T06:13:35;-3.50;99.90
16513;DHT22;8369;48.030;11.598;2023-02-11T06:16:01;-3.50;99.90
16513;DHT22;8369;48.030;11.598;2023-02-11T06:18:28;-3.40;99.90
16513;DHT22;8369;48.030;11.598;2023-02-11T06:20:54;-3.40;99.90
16513;DHT22;8369;48.030;11.598;2023-02-11T06:23:20;-3.30;99.90
16513;DHT22;8369;48.030;11.598;2023-02-11T06:25:46;-3.30;99.90
16513;DHT22;8369;48.030;11.598;2023-02-11T06:28:12;-3.30;99.90
16513;DHT22;8369;48.030;11.598;2023-02-11T06:30:39;-3.20;99.90
16513;DHT22;8369;48.030;11.598;2023-02-11T06:33:05;-3.20;99.90
16513;DHT22;8369;48.030;11.598;2023-02-11T06:35:31;-3.10;99.90
16513;DHT22;8369;48.030;11.598;2023-02-11T06:37:58;-3.10;99.90
16513;DHT22;8369;48.030;11.598;2023-02-11T06:40:24;-3.00;99.90
16513;DHT22;8369;48.030;11.598;2023-02-11T06:42:50;-3.00;99.90
16513;DHT22;8369;48.030;11.598;2023-02-11T06:45:16;-3.00;99.90
16513;DHT22;8369;48.030;11.598;2023-02-11T06:47:42;-2.90;99.90
16513;DHT22;8369;48.030;11.598;2023-02-11T06:50:11;-2.90;99.90
16513;DHT22;8369;48.030;11.598;2023-02-11T06:52:37;-2.80;99.90
16513;DHT22;8369;48.030;11.598;2023-02-11T06:55:03;-2.80;99.90
16513;DHT22;8369;48.030;11.598;2023-02-11T06:57:30;-2.70;99.90
16513;DHT22;8369;48.030;11.598;2023-02-11T06:59:56;-2.70;99.90
16513;DHT22;8369;48.030;11.598;2023-02-11T07:02:22;-2.60;99.90
16513;DHT22;8369;48.030;11.598;2023-02-11T07:04:48;-2.60;99.90
16513;DHT22;8369;48.030;11.598;2023-02-11T07:07:15;-2.50;99.90
16513;DHT22;8369;48.030;11.598;2023-02-11T07:09:41;-2.40;99.90
16513;DHT22;8369;48.030;11.598;2023-02-11T07:12:08;-2.30;99.90
16513;DHT22;8369;48.030;11.598;2023-02-11T07:14:34;-2.30;99.90
16513;DHT22;8369;48.030;11.598;2023-02-11T07:17:00;-2.20;99.90
16513;DHT22;8369;48.030;11.598;2023-02-11T07:19:26;-2.10;99.90
16513;DHT22;8369;48.030;11.598;2023-02-11T07:21:51;-2.10;99.90
16513;DHT22;8369;48.030;11.598;2023-02-11T07:24:18;-2.00;99.90
16513;DHT22;8369;48.030;11.598;2023-02-11T07:26:44;-2.00;99.90
16513;DHT22;8369;48.030;11.598;2023-02-11T07:29:10;-1.90;99.90
16513;DHT22;8369;48.030;11.598;2023-02-11T07:31:35;-1.90;99.90
16513;DHT22;8369;48.030;11.598;2023-02-11T07:34:01;-1.80;99.90
16513;DHT22;8369;48.030;11.598;2023-02-11T07:36:28;-1.80;99.90
16513;DHT22;8369;48.030;11.598;2023-02-11T07:38:55;-1.80;99.90
16513;DHT22;8369;48.030;11.598;2023-02-11T07:41:23;-1.70;99.90
16513;DHT22;8369;48.030;11.598;2023-02-11T07:43:50;-1.70;99.90
16513;DHT22;8369;48.030;11.598;2023-02-11T07:48:46;-1.60;99.90
16513;DHT22;8369;48.030;11.598;2023-02-11T07:51:20;-1.60;99.90
16513;DHT22;8369;48.030;11.598;2023-02-11T07:53:47;-1.50;99.90
16513;DHT22;8369;48.030;11.598;2023-02-11T07:56:14;-1.50;99.90
16513;DHT22;8369;48.030;11.598;2023-02-11T07:58:41;-1.50;99.90
16513;DHT22;8369;48.030;11.598;2023-02-11T08:01:09;-1.40;99.90
16513;DHT22;8369;48.030;11.598;2023-02-11T08:03:37;-1.40;99.90
16513;DHT22;8369;48.030;11.598;2023-02-11T08:06:07;-1.30;99.90
16513;DHT22;8369;48.030;11.598;2023-02-11T08:08:33;-1.30;99.90
16513;DHT22;8369;48.030;11.598;2023-02-11T08:11:05;-1.20;99.90
16513;DHT22;8369;48.030;11.598;2023-02-11T08:13:32;-1.20;99.90
16513;DHT22;8369;48.030;11.598;2023-02-11T08:15:58;-1.10;99.90
16513;DHT22;8369;48.030;11.598;2023-02-11T08:18:23;-1.10;99.90
16513;DHT22;8369;48.030;11.598;2023-02-11T08:20:49;-1.00;99.90
16513;DHT22;8369;48.030;11.598;2023-02-11T08:23:15;-1.00;99.90
16513;DHT22;8369;48.030;11.598;2023-02-11T08:25:41;-0.90;99.90
16513;DHT22;8369;48.030;11.598;2023-02-11T08:28:09;-0.90;99.90
16513;DHT22;8369;48.030;11.598;2023-02-11T08:30:34;-0.80;99.90
16513;DHT22;8369;48.030;11.598;2023-02-11T08:33:00;-0.80;99.90
16513;DHT22;8369;48.030;11.598;2023-02-11T08:35:26;-0.70;99.90
16513;DHT22;8369;48.030;11.598;2023-02-11T08:37:52;-0.60;99.90
16513;DHT22;8369;48.030;11.598;2023-02-11T08:40:18;-0.50;99.90
16513;DHT22;8369;48.030;11.598;2023-02-11T08:42:44;-0.40;99.90
16513;DHT22;8369;48.030;11.598;2023-02-11T08:45:10;-0.40;99.90
16513;DHT22;8369;48.030;11.598;2023-02-11T08:47:37;-0.30;99.90
16513;DHT22;8369;48.030;11.598;2023-02-11T08:50:03;-0.30;99.90
16513;DHT22;8369;48.030;11.598;2023-02-11T08:52:29;-0.20;99.90
16513;DHT22;8369;48.030;11.598;2023-02-11T08:54:55;-0.10;99.90
16513;DHT22;8369;48.030;11.598;2023-02-11T08:57:21;0.00;99.90
16513;DHT22;8369;48.030;11.598;2023-02-11T08:59:46;0.00;99.90
16513;DHT22;8369;48.030;11.598;2023-02-11T09:02:13;0.10;99.90
16513;DHT22;8369;48.030;11.598;2023-02-11T09:04:39;0.10;99.90
16513;DHT22;8369;48.030;11.598;2023-02-11T09:07:05;0.20;99.90
16513;DHT22;8369;48.030;11.598;2023-02-11T09:09:32;0.30;99.90
16513;DHT22;8369;48.030;11.598;2023-02-11T09:11:58;0.30;99.90
16513;DHT22;8369;48.030;11.598;2023-02-11T09:14:25;0.40;99.90
16513;DHT22;8369;48.030;11.598;2023-02-11T09:16:52;0.40;99.90
16513;DHT22;8369;48.030;11.598;2023-02-11T09:19:18;0.40;99.90
16513;DHT22;8369;48.030;11.598;2023-02-11T09:21:45;0.50;99.90
16513;DHT22;8369;48.030;11.598;2023-02-11T09:24:11;0.50;99.90
16513;DHT22;8369;48.030;11.598;2023-02-11T09:26:37;0.60;99.90
16513;DHT22;8369;48.030;11.598;2023-02-11T09:29:04;0.60;99.90
16513;DHT22;8369;48.030;11.598;2023-02-11T09:31:31;0.70;99.90
16513;DHT22;8369;48.030;11.598;2023-02-11T09:34:00;0.70;99.90
16513;DHT22;8369;48.030;11.598;2023-02-11T09:36:31;0.70;99.90
16513;DHT22;8369;48.030;11.598;2023-02-11T09:38:59;0.80;99.90
16513;DHT22;8369;48.030;11.598;2023-02-11T09:44:15;0.80;99.90
16513;DHT22;8369;48.030;11.598;2023-02-11T09:46:49;0.90;99.90
16513;DHT22;8369;48.030;11.598;2023-02-11T09:49:22;0.90;99.90
16513;DHT22;8369;48.030;11.598;2023-02-11T09:51:54;1.00;99.90
16513;DHT22;8369;48.030;11.598;2023-02-11T09:54:52;1.00;99.90
16513;DHT22;8369;48.030;11.598;2023-02-11T09:57:18;1.10;99.90
16513;DHT22;8369;48.030;11.598;2023-02-11T09:59:44;1.10;99.90
16513;DHT22;8369;48.030;11.598;2023-02-11T10:02:31;1.20;99.90
16513;DHT22;8369;48.030;11.598;2023-02-11T10:08:12;1.30;99.90
16513;DHT22;8369;48.030;11.598;2023-02-11T10:10:46;1.40;99.90
16513;DHT22;8369;48.030;11.598;2023-02-11T10:21:29;1.80;99.90
16513;DHT22;8369;48.030;11.598;2023-02-11T10:24:02;2.00;99.90
16513;DHT22;8369;48.030;11.598;2023-02-11T10:26:30;2.20;99.90
16513;DHT22;8369;48.030;11.598;2023-02-11T10:29:00;2.40;99.90
16513;DHT22;8369;48.030;11.598;2023-02-11T10:31:34;2.50;99.90
16513;DHT22;8369;48.030;11.598;2023-02-11T10:34:03;2.60;99.90
16513;DHT22;8369;48.030;11.598;2023-02-11T10:36:32;2.60;99.90
16513;DHT22;8369;48.030;11.598;2023-02-11T10:39:11;2.60;99.90
16513;DHT22;8369;48.030;11.598;2023-02-11T10:41:42;2.70;99.90
16513;DHT22;8369;48.030;11.598;2023-02-11T10:44:20;2.70;99.90
16513;DHT22;8369;48.030;11.598;2023-02-11T10:46:48;2.70;99.90
16513;DHT22;8369;48.030;11.598;2023-02-11T10:49:39;2.80;99.90
16513;DHT22;8369;48.030;11.598;2023-02-11T10:52:23;2.80;99.90
16513;DHT22;8369;48.030;11.598;2023-02-11T10:57:41;2.90;99.90
16513;DHT22;8369;48.030;11.598;2023-02-11T11:02:43;3.00;99.90
16513;DHT22;8369;48.030;11.598;2023-02-11T11:05:18;3.00;99.90
16513;DHT22;8369;48.030;11.598;2023-02-11T11:07:56;3.10;99.90
16513;DHT22;8369;48.030;11.598;2023-02-11T11:10:41;3.10;97.50
16513;DHT22;8369;48.030;11.598;2023-02-11T11:13:37;3.20;97.50
16513;DHT22;8369;48.030;11.598;2023-02-11T11:18:37;3.30;98.20
16513;DHT22;8369;48.030;11.598;2023-02-11T11:21:05;3.40;99.10
16513;DHT22;8369;48.030;11.598;2023-02-11T11:23:34;3.40;98.50
16513;DHT22;8369;48.030;11.598;2023-02-11T11:26:13;3.50;98.90
16513;DHT22;8369;48.030;11.598;2023-02-11T11:31:14;3.60;96.90
16513;DHT22;8369;48.030;11.598;2023-02-11T11:33:42;3.70;97.70
16513;DHT22;8369;48.030;11.598;2023-02-11T11:36:11;3.80;93.30
16513;DHT22;8369;48.030;11.598;2023-02-11T11:39:14;3.80;94.70
16513;DHT22;8369;48.030;11.598;2023-02-11T11:41:32;3.90;92.60
16513;DHT22;8369;48.030;11.598;2023-02-11T11:44:20;4.00;93.30
16513;DHT22;8369;48.030;11.598;2023-02-11T11:46:53;4.00;95.00
16513;DHT22;8369;48.030;11.598;2023-02-11T11:49:33;4.10;95.90
16513;DHT22;8369;48.030;11.598;2023-02-11T11:54:57;4.20;94.10
16513;DHT22;8369;48.030;11.598;2023-02-11T11:57:26;4.30;92.20
16513;DHT22;8369;48.030;11.598;2023-02-11T11:59:54;4.30;93.20
16513;DHT22;8369;48.030;11.598;2023-02-11T12:08:15;4.30;95.30
16513;DHT22;8369;48.030;11.598;2023-02-11T12:13:44;4.50;93.40
16513;DHT22;8369;48.030;11.598;2023-02-11T12:43:40;4.70;95.00
16513;DHT22;8369;48.030;11.598;2023-02-11T12:49:39;4.80;95.70
16513;DHT22;8369;48.030;11.598;2023-02-11T12:52:10;4.80;95.60
16513;DHT22;8369;48.030;11.598;2023-02-11T12:54:46;4.90;95.90
16513;DHT22;8369;48.030;11.598;2023-02-11T12:57:22;4.90;95.70
16513;DHT22;8369;48.030;11.598;2023-02-11T13:02:55;4.90;95.40
16513;DHT22;8369;48.030;11.598;2023-02-11T13:05:45;5.00;94.70
16513;DHT22;8369;48.030;11.598;2023-02-11T13:08:32;5.00;93.10
16513;DHT22;8369;48.030;11.598;2023-02-11T13:11:04;5.00;91.00
16513;DHT22;8369;48.030;11.598;2023-02-11T13:13:36;5.00;89.50
16513;DHT22;8369;48.030;11.598;2023-02-11T13:16:35;5.10;85.40
16513;DHT22;8369;48.030;11.598;2023-02-11T13:24:33;5.10;85.40
16513;DHT22;8369;48.030;11.598;2023-02-11T13:32:10;5.20;88.90
16513;DHT22;8369;48.030;11.598;2023-02-11T13:40:01;5.10;90.20
16513;DHT22;8369;48.030;11.598;2023-02-11T13:42:28;5.10;88.80
16513;DHT22;8369;48.030;11.598;2023-02-11T13:44:54;5.20;86.50
16513;DHT22;8369;48.030;11.598;2023-02-11T13:47:26;5.20;86.20
16513;DHT22;8369;48.030;11.598;2023-02-11T13:49:55;5.30;83.60
16513;DHT22;8369;48.030;11.598;2023-02-11T13:52:33;5.40;85.70
16513;DHT22;8369;48.030;11.598;2023-02-11T13:55:22;5.50;87.60
16513;DHT22;8369;48.030;11.598;2023-02-11T14:00:51;5.60;82.70
16513;DHT22;8369;48.030;11.598;2023-02-11T14:06:12;5.80;84.40
16513;DHT22;8369;48.030;11.598;2023-02-11T14:11:46;5.90;81.10
16513;DHT22;8369;48.030;11.598;2023-02-11T14:14:23;5.80;82.10
16513;DHT22;8369;48.030;11.598;2023-02-11T14:19:36;5.80;79.60
16513;DHT22;8369;48.030;11.598;2023-02-11T14:33:57;5.90;80.00
16513;DHT22;8369;48.030;11.598;2023-02-11T14:36:00;5.90;79.00
16513;DHT22;8369;48.030;11.598;2023-02-11T14:41:28;5.90;79.90
16513;DHT22;8369;48.030;11.598;2023-02-11T14:43:54;5.80;78.50
16513;DHT22;8369;48.030;11.598;2023-02-11T14:46:23;5.80;81.30
16513;DHT22;8369;48.030;11.598;2023-02-11T14:48:56;5.80;81.60
16513;DHT22;8369;48.030;11.598;2023-02-11T14:52:29;5.80;82.80
16513;DHT22;8369;48.030;11.598;2023-02-11T14:54:49;5.70;81.50
16513;DHT22;8369;48.030;11.598;2023-02-11T14:57:17;5.70;83.70
16513;DHT22;8369;48.030;11.598;2023-02-11T14:59:59;5.60;83.30
16513;DHT22;8369;48.030;11.598;2023-02-11T15:02:35;5.60;84.50
16513;DHT22;8369;48.030;11.598;2023-02-11T15:05:21;5.60;84.50
16513;DHT22;8369;48.030;11.598;2023-02-11T15:07:55;5.60;85.40
16513;DHT22;8369;48.030;11.598;2023-02-11T15:12:59;5.50;86.00
16513;DHT22;8369;48.030;11.598;2023-02-11T15:15:26;5.50;84.70
16513;DHT22;8369;48.030;11.598;2023-02-11T15:17:54;5.50;85.90
16513;DHT22;8369;48.030;11.598;2023-02-11T15:20:28;5.50;86.30
16513;DHT22;8369;48.030;11.598;2023-02-11T15:23:02;5.50;86.50
16513;DHT22;8369;48.030;11.598;2023-02-11T15:25:28;5.40;86.80
16513;DHT22;8369;48.030;11.598;2023-02-11T15:27:59;5.40;86.20
16513;DHT22;8369;48.030;11.598;2023-02-11T15:30:31;5.40;86.90
16513;DHT22;8369;48.030;11.598;2023-02-11T15:33:02;5.40;86.80
16513;DHT22;8369;48.030;11.598;2023-02-11T15:35:33;5.30;87.10
16513;DHT22;8369;48.030;11.598;2023-02-11T15:38:01;5.30;87.70
16513;DHT22;8369;48.030;11.598;2023-02-11T15:40:32;5.30;88.30
16513;DHT22;8369;48.030;11.598;2023-02-11T15:43:04;5.30;87.70
16513;DHT22;8369;48.030;11.598;2023-02-11T15:45:52;5.20;86.90
16513;DHT22;8369;48.030;11.598;2023-02-11T15:48:34;5.20;87.70
16513;DHT22;8369;48.030;11.598;2023-02-11T15:51:16;5.20;88.20
16513;DHT22;8369;48.030;11.598;2023-02-11T15:54:14;5.10;88.80
16513;DHT22;8369;48.030;11.598;2023-02-11T15:56:39;5.10;89.70
16513;DHT22;8369;48.030;11.598;2023-02-11T15:59:27;5.00;89.70
16513;DHT22;8369;48.030;11.598;2023-02-11T16:01:57;5.00;90.60
16513;DHT22;8369;48.030;11.598;2023-02-11T16:04:25;4.90;91.00
16513;DHT22;8369;48.030;11.598;2023-02-11T16:06:54;4.90;91.50
16513;DHT22;8369;48.030;11.598;2023-02-11T16:09:38;4.90;91.80
16513;DHT22;8369;48.030;11.598;2023-02-11T16:12:22;4.80;92.40
16513;DHT22;8369;48.030;11.598;2023-02-11T16:14:48;4.70;92.90
16513;DHT22;8369;48.030;11.598;2023-02-11T16:19:49;4.60;93.70
16513;DHT22;8369;48.030;11.598;2023-02-11T16:22:26;4.60;94.30
16513;DHT22;8369;48.030;11.598;2023-02-11T16:24:57;4.50;94.70
16513;DHT22;8369;48.030;11.598;2023-02-11T16:27:31;4.40;95.20
16513;DHT22;8369;48.030;11.598;2023-02-11T16:30:04;4.40;95.80
16513;DHT22;8369;48.030;11.598;2023-02-11T16:32:32;4.30;96.20
16513;DHT22;8369;48.030;11.598;2023-02-11T16:34:59;4.20;96.90
16513;DHT22;8369;48.030;11.598;2023-02-11T16:37:26;4.20;97.30
16513;DHT22;8369;48.030;11.598;2023-02-11T16:39:56;4.10;98.00
16513;DHT22;8369;48.030;11.598;2023-02-11T16:42:23;4.00;98.30
16513;DHT22;8369;48.030;11.598;2023-02-11T16:44:50;4.00;98.70
16513;DHT22;8369;48.030;11.598;2023-02-11T16:47:23;3.90;99.40
16513;DHT22;8369;48.030;11.598;2023-02-11T16:49:49;3.90;99.90
16513;DHT22;8369;48.030;11.598;2023-02-11T16:52:17;3.80;99.90
16513;DHT22;8369;48.030;11.598;2023-02-11T16:54:45;3.80;99.90
16513;DHT22;8369;48.030;11.598;2023-02-11T16:57:15;3.70;99.90
16513;DHT22;8369;48.030;11.598;2023-02-11T16:59:42;3.70;99.90
16513;DHT22;8369;48.030;11.598;2023-02-11T17:02:15;3.60;99.90
16513;DHT22;8369;48.030;11.598;2023-02-11T17:04:43;3.60;99.90
16513;DHT22;8369;48.030;11.598;2023-02-11T17:07:10;3.50;99.90
16513;DHT22;8369;48.030;11.598;2023-02-11T17:09:36;3.50;99.90
16513;DHT22;8369;48.030;11.598;2023-02-11T17:12:02;3.50;99.90
16513;DHT22;8369;48.030;11.598;2023-02-11T17:14:28;3.40;99.90
16513;DHT22;8369;48.030;11.598;2023-02-11T17:16:55;3.40;99.90
16513;DHT22;8369;48.030;11.598;2023-02-11T17:19:22;3.30;99.90
16513;DHT22;8369;48.030;11.598;2023-02-11T17:21:51;3.30;99.90
16513;DHT22;8369;48.030;11.598;2023-02-11T17:24:21;3.20;99.90
16513;DHT22;8369;48.030;11.598;2023-02-11T17:26:48;3.20;99.90
16513;DHT22;8369;48.030;11.598;2023-02-11T17:29:17;3.20;99.90
16513;DHT22;8369;48.030;11.598;2023-02-11T17:31:44;3.10;99.90
16513;DHT22;8369;48.030;11.598;2023-02-11T17:37:52;3.00;99.90
16513;DHT22;8369;48.030;11.598;2023-02-11T17:40:19;2.90;99.90
16513;DHT22;8369;48.030;11.598;2023-02-11T17:42:45;2.90;99.90
16513;DHT22;8369;48.030;11.598;2023-02-11T17:45:11;2.80;99.90
16513;DHT22;8369;48.030;11.598;2023-02-11T17:47:38;2.80;99.90
16513;DHT22;8369;48.030;11.598;2023-02-11T17:50:05;2.80;99.90
16513;DHT22;8369;48.030;11.598;2023-02-11T17:52:31;2.80;99.90
16513;DHT22;8369;48.030;11.598;2023-02-11T17:54:58;2.80;99.90
16513;DHT22;8369;48.030;11.598;2023-02-11T17:57:24;2.70;99.90
16513;DHT22;8369;48.030;11.598;2023-02-11T17:59:51;2.70;99.90
16513;DHT22;8369;48.030;11.598;2023-02-11T18:02:17;2.70;99.90
16513;DHT22;8369;48.030;11.598;2023-02-11T18:04:44;2.70;99.90
16513;DHT22;8369;48.030;11.598;2023-02-11T18:07:10;2.60;99.90
16513;DHT22;8369;48.030;11.598;2023-02-11T18:09:38;2.60;99.90
16513;DHT22;8369;48.030;11.598;2023-02-11T18:12:06;2.60;99.90
16513;DHT22;8369;48.030;11.598;2023-02-11T18:14:32;2.50;99.90
16513;DHT22;8369;48.030;11.598;2023-02-11T18:16:59;2.50;99.90
16513;DHT22;8369;48.030;11.598;2023-02-11T18:19:26;2.50;99.90
16513;DHT22;8369;48.030;11.598;2023-02-11T18:21:55;2.50;99.90
16513;DHT22;8369;48.030;11.598;2023-02-11T18:24:22;2.40;99.90
16513;DHT22;8369;48.030;11.598;2023-02-11T18:26:48;2.40;99.90
16513;DHT22;8369;48.030;11.598;2023-02-11T18:29:14;2.40;99.90
16513;DHT22;8369;48.030;11.598;2023-02-11T18:31:41;2.40;99.90
16513;DHT22;8369;48.030;11.598;2023-02-11T18:34:07;2.30;99.90